Skofljica, Slovenia
Current Conditions -  °F | °C
As of 8:00 AM on Friday 31 Oct 2014 (Local Time) from LJLJ Reporting Station
Light Fog Light Fog  
Wind Chill: 30°   Ceiling: Unl
Heat Index: 30°   Visibility: 2.5mi
Dew Point: 28°   Wind: 0mph
Humidity: 93%   Direction: NA
Pressure: 30.36"   Gusts: NA
Location:  45.98°N, 14.58°E
Report Text: LJLJ 310600Z 00000KT 4000 0500SE R30/0500N PRFG BR FEW001SCT230 M01/M02 Q1028 NOSIG
Loading
Personal Weather Stations






























Interactive Weather Map
Tropical Storm Tracking
New forecast layout! Learn more

10-Day Weather Forecast

Advertisements
Track Severe Weather on mobile